sensor_id;sensor_type;location;lat;lon;timestamp;P1;durP1;ratioP1;P2;durP2;ratioP2
3068;SDS011;1545;51.728;8.796;2023-07-29T00:02:07;8.47;;;4.83;;
3068;SDS011;1545;51.728;8.796;2023-07-29T00:04:33;7.27;;;4.93;;
3068;SDS011;1545;51.728;8.796;2023-07-29T00:06:58;6.77;;;5.33;;
3068;SDS011;1545;51.728;8.796;2023-07-29T00:09:24;6.27;;;5.17;;
3068;SDS011;1545;51.728;8.796;2023-07-29T00:11:49;7.40;;;5.10;;
3068;SDS011;1545;51.728;8.796;2023-07-29T00:14:15;9.57;;;5.07;;
3068;SDS011;1545;51.728;8.796;2023-07-29T00:16:40;6.63;;;5.27;;
3068;SDS011;1545;51.728;8.796;2023-07-29T00:19:07;6.67;;;5.37;;
3068;SDS011;1545;51.728;8.796;2023-07-29T00:21:32;8.10;;;5.80;;
3068;SDS011;1545;51.728;8.796;2023-07-29T00:23:58;8.53;;;4.90;;
3068;SDS011;1545;51.728;8.796;2023-07-29T00:26:23;9.00;;;5.03;;
3068;SDS011;1545;51.728;8.796;2023-07-29T00:28:51;6.37;;;4.53;;
3068;SDS011;1545;51.728;8.796;2023-07-29T00:31:16;9.90;;;4.40;;
3068;SDS011;1545;51.728;8.796;2023-07-29T00:33:42;5.00;;;4.63;;
3068;SDS011;1545;51.728;8.796;2023-07-29T00:36:07;9.07;;;4.70;;
3068;SDS011;1545;51.728;8.796;2023-07-29T00:38:33;5.17;;;4.57;;
3068;SDS011;1545;51.728;8.796;2023-07-29T00:40:58;5.33;;;4.60;;
3068;SDS011;1545;51.728;8.796;2023-07-29T00:43:27;9.87;;;4.40;;
3068;SDS011;1545;51.728;8.796;2023-07-29T00:45:52;7.13;;;4.10;;
3068;SDS011;1545;51.728;8.796;2023-07-29T00:48:18;4.97;;;3.80;;
3068;SDS011;1545;51.728;8.796;2023-07-29T00:50:44;10.30;;;4.77;;
3068;SDS011;1545;51.728;8.796;2023-07-29T00:53:09;7.50;;;4.57;;
3068;SDS011;1545;51.728;8.796;2023-07-29T00:55:35;7.13;;;4.10;;
3068;SDS011;1545;51.728;8.796;2023-07-29T00:58:01;4.40;;;3.90;;
3068;SDS011;1545;51.728;8.796;2023-07-29T01:00:27;5.77;;;4.07;;
3068;SDS011;1545;51.728;8.796;2023-07-29T01:02:53;9.57;;;4.10;;
3068;SDS011;1545;51.728;8.796;2023-07-29T01:05:19;6.53;;;4.10;;
3068;SDS011;1545;51.728;8.796;2023-07-29T01:13:17;10.47;;;4.87;;
3068;SDS011;1545;51.728;8.796;2023-07-29T01:15:55;10.27;;;4.80;;
3068;SDS011;1545;51.728;8.796;2023-07-29T01:18:26;7.90;;;4.50;;
3068;SDS011;1545;51.728;8.796;2023-07-29T01:20:59;5.57;;;4.40;;
3068;SDS011;1545;51.728;8.796;2023-07-29T01:23:33;6.17;;;4.70;;
3068;SDS011;1545;51.728;8.796;2023-07-29T01:26:00;10.17;;;4.83;;
3068;SDS011;1545;51.728;8.796;2023-07-29T01:28:26;4.67;;;4.30;;
3068;SDS011;1545;51.728;8.796;2023-07-29T01:30:57;6.10;;;4.83;;
3068;SDS011;1545;51.728;8.796;2023-07-29T01:33:26;7.70;;;4.67;;
3068;SDS011;1545;51.728;8.796;2023-07-29T01:35:57;4.97;;;4.30;;
3068;SDS011;1545;51.728;8.796;2023-07-29T01:38:33;7.77;;;4.60;;
3068;SDS011;1545;51.728;8.796;2023-07-29T01:41:02;6.27;;;4.50;;
3068;SDS011;1545;51.728;8.796;2023-07-29T01:43:28;5.57;;;4.20;;
3068;SDS011;1545;51.728;8.796;2023-07-29T01:45:55;7.67;;;4.17;;
3068;SDS011;1545;51.728;8.796;2023-07-29T01:48:20;4.63;;;3.57;;
3068;SDS011;1545;51.728;8.796;2023-07-29T01:50:46;6.17;;;3.97;;
3068;SDS011;1545;51.728;8.796;2023-07-29T01:53:12;6.17;;;3.33;;
3068;SDS011;1545;51.728;8.796;2023-07-29T01:55:38;7.43;;;4.00;;
3068;SDS011;1545;51.728;8.796;2023-07-29T01:58:04;5.80;;;3.63;;
3068;SDS011;1545;51.728;8.796;2023-07-29T02:00:29;4.00;;;3.20;;
3068;SDS011;1545;51.728;8.796;2023-07-29T02:02:55;4.37;;;3.90;;
3068;SDS011;1545;51.728;8.796;2023-07-29T02:05:20;6.57;;;3.77;;
3068;SDS011;1545;51.728;8.796;2023-07-29T02:07:46;7.67;;;3.80;;
3068;SDS011;1545;51.728;8.796;2023-07-29T02:10:12;4.90;;;3.83;;
3068;SDS011;1545;51.728;8.796;2023-07-29T02:12:37;7.60;;;4.03;;
3068;SDS011;1545;51.728;8.796;2023-07-29T02:15:03;5.73;;;3.73;;
3068;SDS011;1545;51.728;8.796;2023-07-29T02:17:30;10.37;;;3.87;;
3068;SDS011;1545;51.728;8.796;2023-07-29T02:19:56;6.73;;;4.27;;
3068;SDS011;1545;51.728;8.796;2023-07-29T02:22:21;8.60;;;3.87;;
3068;SDS011;1545;51.728;8.796;2023-07-29T02:24:47;9.67;;;4.00;;
3068;SDS011;1545;51.728;8.796;2023-07-29T02:27:12;7.70;;;4.13;;
3068;SDS011;1545;51.728;8.796;2023-07-29T02:29:38;5.73;;;4.13;;
3068;SDS011;1545;51.728;8.796;2023-07-29T02:32:03;3.67;;;3.57;;
3068;SDS011;1545;51.728;8.796;2023-07-29T02:34:29;5.57;;;3.80;;
3068;SDS011;1545;51.728;8.796;2023-07-29T02:36:55;5.33;;;4.50;;
3068;SDS011;1545;51.728;8.796;2023-07-29T02:39:20;5.67;;;4.30;;
3068;SDS011;1545;51.728;8.796;2023-07-29T02:41:46;9.53;;;4.20;;
3068;SDS011;1545;51.728;8.796;2023-07-29T02:44:12;4.90;;;4.10;;
3068;SDS011;1545;51.728;8.796;2023-07-29T02:46:37;6.67;;;4.00;;
3068;SDS011;1545;51.728;8.796;2023-07-29T02:49:03;11.77;;;4.43;;
3068;SDS011;1545;51.728;8.796;2023-07-29T02:51:29;8.47;;;4.33;;
3068;SDS011;1545;51.728;8.796;2023-07-29T02:53:55;7.13;;;3.93;;
3068;SDS011;1545;51.728;8.796;2023-07-29T02:56:21;7.27;;;4.20;;
3068;SDS011;1545;51.728;8.796;2023-07-29T02:58:46;5.73;;;4.37;;
3068;SDS011;1545;51.728;8.796;2023-07-29T03:01:12;13.77;;;4.20;;
3068;SDS011;1545;51.728;8.796;2023-07-29T03:03:37;4.77;;;3.90;;
3068;SDS011;1545;51.728;8.796;2023-07-29T03:06:07;11.63;;;4.20;;
3068;SDS011;1545;51.728;8.796;2023-07-29T03:08:34;4.17;;;3.83;;
3068;SDS011;1545;51.728;8.796;2023-07-29T03:11:04;6.93;;;4.23;;
3068;SDS011;1545;51.728;8.796;2023-07-29T03:13:32;7.43;;;4.00;;
3068;SDS011;1545;51.728;8.796;2023-07-29T03:16:05;7.33;;;4.30;;
3068;SDS011;1545;51.728;8.796;2023-07-29T03:18:34;4.30;;;4.00;;
3068;SDS011;1545;51.728;8.796;2023-07-29T03:21:01;8.10;;;4.30;;
3068;SDS011;1545;51.728;8.796;2023-07-29T03:23:30;11.50;;;4.40;;
3068;SDS011;1545;51.728;8.796;2023-07-29T03:25:57;11.30;;;5.37;;
3068;SDS011;1545;51.728;8.796;2023-07-29T03:28:27;9.27;;;4.43;;
3068;SDS011;1545;51.728;8.796;2023-07-29T03:30:57;12.20;;;4.90;;
3068;SDS011;1545;51.728;8.796;2023-07-29T03:33:24;9.60;;;4.80;;
3068;SDS011;1545;51.728;8.796;2023-07-29T03:35:50;9.83;;;4.77;;
3068;SDS011;1545;51.728;8.796;2023-07-29T03:38:16;9.67;;;4.93;;
3068;SDS011;1545;51.728;8.796;2023-07-29T03:40:42;7.83;;;4.60;;
3068;SDS011;1545;51.728;8.796;2023-07-29T03:43:08;5.53;;;4.80;;
3068;SDS011;1545;51.728;8.796;2023-07-29T03:45:34;7.87;;;5.10;;
3068;SDS011;1545;51.728;8.796;2023-07-29T03:48:01;5.80;;;4.80;;
3068;SDS011;1545;51.728;8.796;2023-07-29T03:50:27;12.97;;;4.90;;
3068;SDS011;1545;51.728;8.796;2023-07-29T03:52:53;9.77;;;4.60;;
3068;SDS011;1545;51.728;8.796;2023-07-29T03:55:19;5.80;;;4.67;;
3068;SDS011;1545;51.728;8.796;2023-07-29T03:57:45;13.23;;;4.80;;
3068;SDS011;1545;51.728;8.796;2023-07-29T04:00:11;8.70;;;4.93;;
3068;SDS011;1545;51.728;8.796;2023-07-29T04:02:36;11.30;;;4.90;;
3068;SDS011;1545;51.728;8.796;2023-07-29T04:05:05;9.43;;;5.50;;
3068;SDS011;1545;51.728;8.796;2023-07-29T04:07:33;12.60;;;5.03;;
3068;SDS011;1545;51.728;8.796;2023-07-29T04:10:02;7.13;;;4.63;;
3068;SDS011;1545;51.728;8.796;2023-07-29T04:12:28;20.97;;;5.50;;
3068;SDS011;1545;51.728;8.796;2023-07-29T04:14:53;10.47;;;5.70;;
3068;SDS011;1545;51.728;8.796;2023-07-29T04:17:19;19.63;;;5.20;;
3068;SDS011;1545;51.728;8.796;2023-07-29T04:19:44;7.37;;;5.70;;
3068;SDS011;1545;51.728;8.796;2023-07-29T04:22:10;8.90;;;5.43;;
3068;SDS011;1545;51.728;8.796;2023-07-29T04:24:35;21.53;;;5.43;;
3068;SDS011;1545;51.728;8.796;2023-07-29T04:27:03;10.90;;;5.23;;
3068;SDS011;1545;51.728;8.796;2023-07-29T04:29:28;13.10;;;4.90;;
3068;SDS011;1545;51.728;8.796;2023-07-29T04:31:54;38.07;;;36.20;;
3068;SDS011;1545;51.728;8.796;2023-07-29T04:34:19;8.10;;;5.23;;
3068;SDS011;1545;51.728;8.796;2023-07-29T04:36:45;8.97;;;5.23;;
3068;SDS011;1545;51.728;8.796;2023-07-29T04:39:11;5.57;;;4.60;;
3068;SDS011;1545;51.728;8.796;2023-07-29T04:41:37;5.63;;;4.53;;
3068;SDS011;1545;51.728;8.796;2023-07-29T04:44:03;7.10;;;4.50;;
3068;SDS011;1545;51.728;8.796;2023-07-29T04:46:28;5.77;;;4.40;;
3068;SDS011;1545;51.728;8.796;2023-07-29T04:48:54;6.47;;;4.47;;
3068;SDS011;1545;51.728;8.796;2023-07-29T04:51:19;6.97;;;4.70;;
3068;SDS011;1545;51.728;8.796;2023-07-29T04:53:45;8.50;;;4.80;;
3068;SDS011;1545;51.728;8.796;2023-07-29T04:56:10;10.20;;;4.63;;
3068;SDS011;1545;51.728;8.796;2023-07-29T04:58:36;8.67;;;5.80;;
3068;SDS011;1545;51.728;8.796;2023-07-29T05:01:02;7.33;;;4.57;;
3068;SDS011;1545;51.728;8.796;2023-07-29T05:03:29;8.37;;;4.60;;
3068;SDS011;1545;51.728;8.796;2023-07-29T05:05:54;10.07;;;4.70;;
3068;SDS011;1545;51.728;8.796;2023-07-29T05:08:21;8.17;;;4.80;;
3068;SDS011;1545;51.728;8.796;2023-07-29T05:10:49;6.43;;;4.87;;
3068;SDS011;1545;51.728;8.796;2023-07-29T05:13:16;8.63;;;4.50;;
3068;SDS011;1545;51.728;8.796;2023-07-29T05:15:42;7.53;;;4.60;;
3068;SDS011;1545;51.728;8.796;2023-07-29T05:18:07;7.40;;;4.53;;
3068;SDS011;1545;51.728;8.796;2023-07-29T05:20:33;5.23;;;4.47;;
3068;SDS011;1545;51.728;8.796;2023-07-29T05:22:58;5.83;;;4.73;;
3068;SDS011;1545;51.728;8.796;2023-07-29T05:25:24;8.33;;;4.40;;
3068;SDS011;1545;51.728;8.796;2023-07-29T05:27:49;7.10;;;4.30;;
3068;SDS011;1545;51.728;8.796;2023-07-29T05:30:15;6.73;;;4.10;;
3068;SDS011;1545;51.728;8.796;2023-07-29T05:32:40;7.23;;;4.30;;
3068;SDS011;1545;51.728;8.796;2023-07-29T05:35:06;7.17;;;4.17;;
3068;SDS011;1545;51.728;8.796;2023-07-29T05:37:32;6.10;;;4.00;;
3068;SDS011;1545;51.728;8.796;2023-07-29T05:39:57;6.73;;;3.83;;
3068;SDS011;1545;51.728;8.796;2023-07-29T05:42:23;4.77;;;3.50;;
3068;SDS011;1545;51.728;8.796;2023-07-29T05:44:49;6.00;;;3.40;;
3068;SDS011;1545;51.728;8.796;2023-07-29T05:47:14;3.90;;;3.13;;
3068;SDS011;1545;51.728;8.796;2023-07-29T05:49:40;7.20;;;3.10;;
3068;SDS011;1545;51.728;8.796;2023-07-29T05:52:05;6.40;;;3.00;;
3068;SDS011;1545;51.728;8.796;2023-07-29T05:54:31;4.40;;;2.70;;
3068;SDS011;1545;51.728;8.796;2023-07-29T05:56:57;3.00;;;2.60;;
3068;SDS011;1545;51.728;8.796;2023-07-29T05:59:22;4.37;;;3.10;;
3068;SDS011;1545;51.728;8.796;2023-07-29T06:01:48;6.30;;;3.20;;
3068;SDS011;1545;51.728;8.796;2023-07-29T06:04:13;4.50;;;2.60;;
3068;SDS011;1545;51.728;8.796;2023-07-29T06:06:39;2.93;;;2.80;;
3068;SDS011;1545;51.728;8.796;2023-07-29T06:09:04;3.90;;;3.00;;
3068;SDS011;1545;51.728;8.796;2023-07-29T06:11:30;4.83;;;2.80;;
3068;SDS011;1545;51.728;8.796;2023-07-29T06:13:55;4.50;;;3.00;;
3068;SDS011;1545;51.728;8.796;2023-07-29T06:16:21;5.17;;;3.43;;
3068;SDS011;1545;51.728;8.796;2023-07-29T06:18:46;9.53;;;3.00;;
3068;SDS011;1545;51.728;8.796;2023-07-29T06:21:12;7.13;;;3.00;;
3068;SDS011;1545;51.728;8.796;2023-07-29T06:23:42;6.17;;;2.67;;
3068;SDS011;1545;51.728;8.796;2023-07-29T06:26:08;3.43;;;2.60;;
3068;SDS011;1545;51.728;8.796;2023-07-29T06:28:33;2.93;;;2.70;;
3068;SDS011;1545;51.728;8.796;2023-07-29T06:30:59;4.53;;;3.10;;
3068;SDS011;1545;51.728;8.796;2023-07-29T06:33:24;3.67;;;2.80;;
3068;SDS011;1545;51.728;8.796;2023-07-29T06:35:50;4.13;;;3.10;;
3068;SDS011;1545;51.728;8.796;2023-07-29T06:38:15;4.33;;;2.70;;
3068;SDS011;1545;51.728;8.796;2023-07-29T06:40:46;5.63;;;2.80;;
3068;SDS011;1545;51.728;8.796;2023-07-29T06:43:12;2.70;;;2.50;;
3068;SDS011;1545;51.728;8.796;2023-07-29T06:45:37;3.47;;;2.73;;
3068;SDS011;1545;51.728;8.796;2023-07-29T06:48:03;4.77;;;3.10;;
3068;SDS011;1545;51.728;8.796;2023-07-29T06:50:29;5.83;;;3.10;;
3068;SDS011;1545;51.728;8.796;2023-07-29T06:52:54;3.33;;;2.67;;
3068;SDS011;1545;51.728;8.796;2023-07-29T06:55:20;6.27;;;2.87;;
3068;SDS011;1545;51.728;8.796;2023-07-29T06:57:45;7.03;;;2.73;;
3068;SDS011;1545;51.728;8.796;2023-07-29T07:00:11;2.90;;;2.70;;
3068;SDS011;1545;51.728;8.796;2023-07-29T07:02:36;4.50;;;2.70;;
3068;SDS011;1545;51.728;8.796;2023-07-29T07:05:02;5.63;;;3.00;;
3068;SDS011;1545;51.728;8.796;2023-07-29T07:07:28;3.97;;;2.93;;
3068;SDS011;1545;51.728;8.796;2023-07-29T07:09:53;3.93;;;2.70;;
3068;SDS011;1545;51.728;8.796;2023-07-29T07:12:19;8.37;;;2.80;;
3068;SDS011;1545;51.728;8.796;2023-07-29T07:14:44;7.30;;;2.80;;
3068;SDS011;1545;51.728;8.796;2023-07-29T07:17:10;9.50;;;3.20;;
3068;SDS011;1545;51.728;8.796;2023-07-29T07:19:35;2.90;;;2.70;;
3068;SDS011;1545;51.728;8.796;2023-07-29T07:22:01;12.30;;;4.03;;
3068;SDS011;1545;51.728;8.796;2023-07-29T07:24:26;7.33;;;3.40;;
3068;SDS011;1545;51.728;8.796;2023-07-29T07:26:52;4.30;;;3.93;;
3068;SDS011;1545;51.728;8.796;2023-07-29T07:29:17;4.43;;;4.20;;
3068;SDS011;1545;51.728;8.796;2023-07-29T07:31:48;6.10;;;4.63;;
3068;SDS011;1545;51.728;8.796;2023-07-29T07:34:18;8.83;;;4.57;;
3068;SDS011;1545;51.728;8.796;2023-07-29T07:36:44;7.87;;;5.83;;
3068;SDS011;1545;51.728;8.796;2023-07-29T07:39:10;9.23;;;5.67;;
3068;SDS011;1545;51.728;8.796;2023-07-29T07:41:35;7.27;;;5.83;;
3068;SDS011;1545;51.728;8.796;2023-07-29T07:44:01;10.53;;;8.33;;
3068;SDS011;1545;51.728;8.796;2023-07-29T07:46:28;10.77;;;8.40;;
3068;SDS011;1545;51.728;8.796;2023-07-29T07:48:54;15.63;;;9.30;;
3068;SDS011;1545;51.728;8.796;2023-07-29T07:51:19;15.00;;;11.47;;
3068;SDS011;1545;51.728;8.796;2023-07-29T07:53:45;15.40;;;11.43;;
3068;SDS011;1545;51.728;8.796;2023-07-29T07:56:11;16.33;;;12.40;;
3068;SDS011;1545;51.728;8.796;2023-07-29T07:58:36;18.03;;;12.10;;
3068;SDS011;1545;51.728;8.796;2023-07-29T08:01:03;19.40;;;12.63;;
3068;SDS011;1545;51.728;8.796;2023-07-29T08:03:32;17.87;;;13.03;;
3068;SDS011;1545;51.728;8.796;2023-07-29T08:05:59;16.57;;;12.27;;
3068;SDS011;1545;51.728;8.796;2023-07-29T08:08:25;17.03;;;13.20;;
3068;SDS011;1545;51.728;8.796;2023-07-29T08:10:52;17.33;;;12.30;;
3068;SDS011;1545;51.728;8.796;2023-07-29T08:13:22;16.33;;;12.87;;
3068;SDS011;1545;51.728;8.796;2023-07-29T08:15:48;21.20;;;13.07;;
3068;SDS011;1545;51.728;8.796;2023-07-29T08:18:17;17.87;;;12.67;;
3068;SDS011;1545;51.728;8.796;2023-07-29T08:20:56;19.93;;;11.77;;
3068;SDS011;1545;51.728;8.796;2023-07-29T08:23:23;15.90;;;11.63;;
3068;SDS011;1545;51.728;8.796;2023-07-29T08:25:53;21.40;;;10.63;;
3068;SDS011;1545;51.728;8.796;2023-07-29T08:28:21;13.53;;;10.77;;
3068;SDS011;1545;51.728;8.796;2023-07-29T08:30:47;11.20;;;9.60;;
3068;SDS011;1545;51.728;8.796;2023-07-29T08:33:12;13.80;;;10.73;;
3068;SDS011;1545;51.728;8.796;2023-07-29T08:35:38;13.00;;;8.87;;
3068;SDS011;1545;51.728;8.796;2023-07-29T08:38:03;17.10;;;8.70;;
3068;SDS011;1545;51.728;8.796;2023-07-29T08:40:29;17.73;;;8.73;;
3068;SDS011;1545;51.728;8.796;2023-07-29T08:42:56;16.23;;;8.03;;
3068;SDS011;1545;51.728;8.796;2023-07-29T08:45:24;13.20;;;8.43;;
3068;SDS011;1545;51.728;8.796;2023-07-29T08:47:50;14.77;;;8.03;;
3068;SDS011;1545;51.728;8.796;2023-07-29T08:50:20;15.43;;;9.07;;
3068;SDS011;1545;51.728;8.796;2023-07-29T08:52:46;12.10;;;9.30;;
3068;SDS011;1545;51.728;8.796;2023-07-29T08:55:14;11.47;;;9.53;;
3068;SDS011;1545;51.728;8.796;2023-07-29T08:57:40;11.47;;;9.40;;
3068;SDS011;1545;51.728;8.796;2023-07-29T09:00:05;12.00;;;8.30;;
3068;SDS011;1545;51.728;8.796;2023-07-29T09:02:32;11.07;;;9.00;;
3068;SDS011;1545;51.728;8.796;2023-07-29T09:04:57;21.17;;;8.97;;
3068;SDS011;1545;51.728;8.796;2023-07-29T09:07:23;12.33;;;9.37;;
3068;SDS011;1545;51.728;8.796;2023-07-29T09:09:49;13.43;;;9.47;;
3068;SDS011;1545;51.728;8.796;2023-07-29T09:12:14;11.10;;;9.43;;
3068;SDS011;1545;51.728;8.796;2023-07-29T09:14:40;13.03;;;10.20;;
3068;SDS011;1545;51.728;8.796;2023-07-29T09:17:08;14.40;;;10.80;;
3068;SDS011;1545;51.728;8.796;2023-07-29T09:19:35;12.40;;;10.40;;
3068;SDS011;1545;51.728;8.796;2023-07-29T09:22:00;15.03;;;9.40;;
3068;SDS011;1545;51.728;8.796;2023-07-29T09:24:26;11.67;;;8.33;;
3068;SDS011;1545;51.728;8.796;2023-07-29T09:26:54;7.97;;;6.50;;
3068;SDS011;1545;51.728;8.796;2023-07-29T09:29:24;5.75;;;5.20;;
3068;SDS011;1545;51.728;8.796;2023-07-29T09:31:53;10.52;;;5.20;;
3068;SDS011;1545;51.728;8.796;2023-07-29T09:34:18;5.63;;;5.40;;
3068;SDS011;1545;51.728;8.796;2023-07-29T09:36:44;6.22;;;5.05;;
3068;SDS011;1545;51.728;8.796;2023-07-29T09:39:12;5.72;;;4.78;;
3068;SDS011;1545;51.728;8.796;2023-07-29T09:41:38;5.78;;;5.03;;
3068;SDS011;1545;51.728;8.796;2023-07-29T09:44:03;6.13;;;5.37;;
3068;SDS011;1545;51.728;8.796;2023-07-29T09:46:33;12.90;;;4.70;;
3068;SDS011;1545;51.728;8.796;2023-07-29T09:49:01;8.40;;;4.77;;
3068;SDS011;1545;51.728;8.796;2023-07-29T09:51:28;5.35;;;4.50;;
3068;SDS011;1545;51.728;8.796;2023-07-29T09:53:53;6.93;;;4.75;;
3068;SDS011;1545;51.728;8.796;2023-07-29T09:56:23;4.35;;;3.90;;
3068;SDS011;1545;51.728;8.796;2023-07-29T09:58:51;8.05;;;4.32;;
3068;SDS011;1545;51.728;8.796;2023-07-29T10:01:17;8.98;;;4.63;;
3068;SDS011;1545;51.728;8.796;2023-07-29T10:03:43;5.40;;;4.18;;
3068;SDS011;1545;51.728;8.796;2023-07-29T10:06:09;7.17;;;4.60;;
3068;SDS011;1545;51.728;8.796;2023-07-29T10:08:35;4.63;;;4.20;;
3068;SDS011;1545;51.728;8.796;2023-07-29T10:11:05;7.47;;;4.37;;
3068;SDS011;1545;51.728;8.796;2023-07-29T10:13:32;5.87;;;4.00;;
3068;SDS011;1545;51.728;8.796;2023-07-29T10:15:58;6.63;;;3.90;;
3068;SDS011;1545;51.728;8.796;2023-07-29T10:18:27;4.33;;;3.27;;
3068;SDS011;1545;51.728;8.796;2023-07-29T10:20:54;4.23;;;3.20;;
3068;SDS011;1545;51.728;8.796;2023-07-29T10:23:22;4.67;;;2.90;;
3068;SDS011;1545;51.728;8.796;2023-07-29T10:25:53;2.57;;;2.20;;
3068;SDS011;1545;51.728;8.796;2023-07-29T10:28:29;11.90;;;2.63;;
3068;SDS011;1545;51.728;8.796;2023-07-29T10:30:56;3.13;;;2.50;;
3068;SDS011;1545;51.728;8.796;2023-07-29T10:33:22;3.93;;;2.23;;
3068;SDS011;1545;51.728;8.796;2023-07-29T10:35:48;3.00;;;2.23;;
3068;SDS011;1545;51.728;8.796;2023-07-29T10:38:14;2.50;;;2.20;;
3068;SDS011;1545;51.728;8.796;2023-07-29T10:40:59;2.83;;;2.20;;
3068;SDS011;1545;51.728;8.796;2023-07-29T10:45:52;2.27;;;2.07;;
3068;SDS011;1545;51.728;8.796;2023-07-29T10:54:03;2.83;;;2.30;;
3068;SDS011;1545;51.728;8.796;2023-07-29T10:56:39;5.00;;;2.00;;
3068;SDS011;1545;51.728;8.796;2023-07-29T11:01:42;2.10;;;2.00;;
3068;SDS011;1545;51.728;8.796;2023-07-29T11:15:21;2.63;;;2.43;;
3068;SDS011;1545;51.728;8.796;2023-07-29T11:17:48;4.17;;;2.50;;
3068;SDS011;1545;51.728;8.796;2023-07-29T11:20:24;6.27;;;2.60;;
3068;SDS011;1545;51.728;8.796;2023-07-29T11:22:52;6.90;;;2.87;;
3068;SDS011;1545;51.728;8.796;2023-07-29T11:25:20;5.40;;;2.33;;
3068;SDS011;1545;51.728;8.796;2023-07-29T11:27:47;3.50;;;2.40;;
3068;SDS011;1545;51.728;8.796;2023-07-29T11:30:13;2.83;;;2.33;;
3068;SDS011;1545;51.728;8.796;2023-07-29T11:32:40;2.93;;;2.60;;
3068;SDS011;1545;51.728;8.796;2023-07-29T11:35:11;3.20;;;2.50;;
3068;SDS011;1545;51.728;8.796;2023-07-29T11:37:39;4.93;;;2.50;;
3068;SDS011;1545;51.728;8.796;2023-07-29T11:40:06;2.40;;;2.30;;
3068;SDS011;1545;51.728;8.796;2023-07-29T11:42:35;3.17;;;2.50;;
3068;SDS011;1545;51.728;8.796;2023-07-29T11:45:02;2.43;;;2.23;;
3068;SDS011;1545;51.728;8.796;2023-07-29T11:47:29;2.50;;;2.37;;
3068;SDS011;1545;51.728;8.796;2023-07-29T11:49:57;3.37;;;2.37;;
3068;SDS011;1545;51.728;8.796;2023-07-29T11:52:25;2.87;;;2.77;;
3068;SDS011;1545;51.728;8.796;2023-07-29T11:54:51;3.53;;;2.73;;
3068;SDS011;1545;51.728;8.796;2023-07-29T11:57:18;3.57;;;2.43;;
3068;SDS011;1545;51.728;8.796;2023-07-29T11:59:44;2.87;;;2.40;;
3068;SDS011;1545;51.728;8.796;2023-07-29T12:02:12;2.80;;;2.60;;
3068;SDS011;1545;51.728;8.796;2023-07-29T12:04:40;2.87;;;2.70;;
3068;SDS011;1545;51.728;8.796;2023-07-29T12:07:06;4.50;;;2.50;;
3068;SDS011;1545;51.728;8.796;2023-07-29T12:09:33;2.83;;;2.70;;
3068;SDS011;1545;51.728;8.796;2023-07-29T12:12:03;2.80;;;2.60;;
3068;SDS011;1545;51.728;8.796;2023-07-29T12:14:30;5.00;;;2.70;;
3068;SDS011;1545;51.728;8.796;2023-07-29T12:16:55;2.93;;;2.70;;
3068;SDS011;1545;51.728;8.796;2023-07-29T12:19:21;3.43;;;2.90;;
3068;SDS011;1545;51.728;8.796;2023-07-29T12:21:50;6.50;;;3.03;;
3068;SDS011;1545;51.728;8.796;2023-07-29T12:24:15;3.27;;;3.00;;
3068;SDS011;1545;51.728;8.796;2023-07-29T12:26:41;3.50;;;2.70;;
3068;SDS011;1545;51.728;8.796;2023-07-29T12:29:13;9.90;;;2.70;;
3068;SDS011;1545;51.728;8.796;2023-07-29T12:31:40;2.90;;;2.70;;
3068;SDS011;1545;51.728;8.796;2023-07-29T12:34:06;6.17;;;2.73;;
3068;SDS011;1545;51.728;8.796;2023-07-29T12:36:44;3.20;;;3.00;;
3068;SDS011;1545;51.728;8.796;2023-07-29T12:39:18;3.83;;;3.20;;
3068;SDS011;1545;51.728;8.796;2023-07-29T12:41:44;3.07;;;2.87;;
3068;SDS011;1545;51.728;8.796;2023-07-29T12:44:10;7.23;;;3.00;;
3068;SDS011;1545;51.728;8.796;2023-07-29T12:46:36;5.33;;;3.47;;
3068;SDS011;1545;51.728;8.796;2023-07-29T12:49:01;4.37;;;3.40;;
3068;SDS011;1545;51.728;8.796;2023-07-29T12:51:27;3.63;;;3.30;;
3068;SDS011;1545;51.728;8.796;2023-07-29T12:53:53;5.33;;;3.53;;
3068;SDS011;1545;51.728;8.796;2023-07-29T12:56:19;4.70;;;3.50;;
3068;SDS011;1545;51.728;8.796;2023-07-29T12:58:45;5.47;;;3.60;;
3068;SDS011;1545;51.728;8.796;2023-07-29T13:01:10;4.30;;;3.63;;
3068;SDS011;1545;51.728;8.796;2023-07-29T13:03:41;5.20;;;3.33;;
3068;SDS011;1545;51.728;8.796;2023-07-29T13:06:07;6.53;;;3.60;;
3068;SDS011;1545;51.728;8.796;2023-07-29T13:08:32;4.20;;;2.90;;
3068;SDS011;1545;51.728;8.796;2023-07-29T13:10:58;2.80;;;2.67;;
3068;SDS011;1545;51.728;8.796;2023-07-29T13:13:23;2.87;;;2.67;;
3068;SDS011;1545;51.728;8.796;2023-07-29T13:15:49;2.73;;;2.53;;
3068;SDS011;1545;51.728;8.796;2023-07-29T13:18:15;4.00;;;3.07;;
3068;SDS011;1545;51.728;8.796;2023-07-29T13:20:40;2.90;;;2.60;;
3068;SDS011;1545;51.728;8.796;2023-07-29T13:23:06;3.03;;;2.47;;
3068;SDS011;1545;51.728;8.796;2023-07-29T13:25:31;3.00;;;2.67;;
3068;SDS011;1545;51.728;8.796;2023-07-29T13:27:57;8.23;;;2.80;;
3068;SDS011;1545;51.728;8.796;2023-07-29T13:30:22;2.70;;;2.40;;
3068;SDS011;1545;51.728;8.796;2023-07-29T13:32:48;4.27;;;3.00;;
3068;SDS011;1545;51.728;8.796;2023-07-29T13:35:13;5.83;;;3.23;;
3068;SDS011;1545;51.728;8.796;2023-07-29T13:37:39;4.43;;;3.10;;
3068;SDS011;1545;51.728;8.796;2023-07-29T13:40:04;3.90;;;3.17;;
3068;SDS011;1545;51.728;8.796;2023-07-29T13:42:31;5.60;;;3.10;;
3068;SDS011;1545;51.728;8.796;2023-07-29T13:44:56;3.20;;;3.00;;
3068;SDS011;1545;51.728;8.796;2023-07-29T13:47:21;5.40;;;3.07;;
3068;SDS011;1545;51.728;8.796;2023-07-29T13:49:47;3.40;;;3.00;;
3068;SDS011;1545;51.728;8.796;2023-07-29T13:52:13;2.83;;;2.67;;
3068;SDS011;1545;51.728;8.796;2023-07-29T13:54:39;6.68;;;2.80;;
3068;SDS011;1545;51.728;8.796;2023-07-29T13:57:04;3.03;;;2.90;;
3068;SDS011;1545;51.728;8.796;2023-07-29T13:59:31;3.30;;;2.75;;
3068;SDS011;1545;51.728;8.796;2023-07-29T14:01:57;2.97;;;2.77;;
3068;SDS011;1545;51.728;8.796;2023-07-29T14:04:23;2.60;;;2.50;;
3068;SDS011;1545;51.728;8.796;2023-07-29T14:06:48;3.00;;;2.53;;
3068;SDS011;1545;51.728;8.796;2023-07-29T14:09:14;3.10;;;2.90;;
3068;SDS011;1545;51.728;8.796;2023-07-29T14:11:39;4.40;;;2.97;;
3068;SDS011;1545;51.728;8.796;2023-07-29T14:14:05;4.40;;;2.97;;
3068;SDS011;1545;51.728;8.796;2023-07-29T14:16:30;2.80;;;2.70;;
3068;SDS011;1545;51.728;8.796;2023-07-29T14:18:56;4.37;;;3.00;;
3068;SDS011;1545;51.728;8.796;2023-07-29T14:21:21;6.07;;;3.40;;
3068;SDS011;1545;51.728;8.796;2023-07-29T14:23:48;3.40;;;2.90;;
3068;SDS011;1545;51.728;8.796;2023-07-29T14:26:13;4.23;;;3.40;;
3068;SDS011;1545;51.728;8.796;2023-07-29T14:28:39;8.33;;;3.30;;
3068;SDS011;1545;51.728;8.796;2023-07-29T14:31:04;4.83;;;3.40;;
3068;SDS011;1545;51.728;8.796;2023-07-29T14:33:30;3.00;;;2.80;;
3068;SDS011;1545;51.728;8.796;2023-07-29T14:35:55;4.17;;;3.10;;
3068;SDS011;1545;51.728;8.796;2023-07-29T14:38:21;7.30;;;3.20;;
3068;SDS011;1545;51.728;8.796;2023-07-29T14:40:47;3.60;;;3.00;;
3068;SDS011;1545;51.728;8.796;2023-07-29T14:43:15;3.60;;;3.17;;
3068;SDS011;1545;51.728;8.796;2023-07-29T14:45:41;5.73;;;2.90;;
3068;SDS011;1545;51.728;8.796;2023-07-29T14:48:07;11.47;;;3.37;;
3068;SDS011;1545;51.728;8.796;2023-07-29T14:50:32;4.00;;;3.07;;
3068;SDS011;1545;51.728;8.796;2023-07-29T14:52:58;4.67;;;3.60;;
3068;SDS011;1545;51.728;8.796;2023-07-29T14:55:23;3.57;;;3.30;;
3068;SDS011;1545;51.728;8.796;2023-07-29T14:57:49;7.20;;;3.60;;
3068;SDS011;1545;51.728;8.796;2023-07-29T15:00:14;4.30;;;3.50;;
3068;SDS011;1545;51.728;8.796;2023-07-29T15:02:40;3.87;;;3.60;;
3068;SDS011;1545;51.728;8.796;2023-07-29T15:05:06;3.60;;;3.50;;
3068;SDS011;1545;51.728;8.796;2023-07-29T15:07:32;4.70;;;3.73;;
3068;SDS011;1545;51.728;8.796;2023-07-29T15:09:57;4.60;;;3.60;;
3068;SDS011;1545;51.728;8.796;2023-07-29T15:12:23;4.07;;;3.50;;
3068;SDS011;1545;51.728;8.796;2023-07-29T15:14:49;3.60;;;3.37;;
3068;SDS011;1545;51.728;8.796;2023-07-29T15:17:15;3.73;;;2.87;;
3068;SDS011;1545;51.728;8.796;2023-07-29T15:19:40;5.00;;;3.10;;
3068;SDS011;1545;51.728;8.796;2023-07-29T15:22:05;2.90;;;2.70;;
3068;SDS011;1545;51.728;8.796;2023-07-29T15:24:31;3.10;;;2.70;;
3068;SDS011;1545;51.728;8.796;2023-07-29T15:26:57;4.67;;;2.90;;
3068;SDS011;1545;51.728;8.796;2023-07-29T15:29:22;3.77;;;2.80;;
3068;SDS011;1545;51.728;8.796;2023-07-29T15:31:48;4.83;;;2.60;;
3068;SDS011;1545;51.728;8.796;2023-07-29T15:34:13;4.17;;;2.90;;
3068;SDS011;1545;51.728;8.796;2023-07-29T15:36:39;4.47;;;3.20;;